Terminal Aerodrome Forecast
Issued by NWS Albany, NY

Home | Current Version | Previous Version | Text Only | Print | Product List | Glossary On
Versions: 1 2 3 4 5 6 7 8 9 10 11 12 13 14 15
000
FTUS41 KALY 300538
TAFGFL
TAF
KGFL 300538Z 3006/0106 05004KT P6SM VCSH OVC060
     FM301100 VRB03KT P6SM BKN060
     FM301500 05007KT P6SM SCT050 SCT250
     FM301900 VRB03KT P6SM BKN250
     FM010000 00000KT P6SM SCT060 OVC200=

USA.gov is the U.S. government's official web portal to all federal, state and local government web resources and services.